Time;durP1;ratioP1;P1;durP2;ratioP2;P2;SDS_P1;SDS_P2;PMS_P1;PMS_P2;Temp;Humidity;BMP_temperature;BMP_pressure;BME280_temperature;BME280_humidity;BME280_pressure;Samples;Min_cycle;Max_cycle;Signal;HPM_P1;HPM_P2
2022/01/24 00:01:07;;;;;;;4.00;3.50;;;4.10;99.90;;;;;;5033405;28;20212;-78
2022/01/24 00:03:34;;;;;;;6.67;4.13;;;4.10;99.90;;;;;;5032677;28;20168;-78
2022/01/24 00:05:59;;;;;;;3.93;3.33;;;4.00;99.90;;;;;;5033510;28;20670;-78
2022/01/24 00:08:25;;;;;;;7.17;3.63;;;3.90;99.90;;;;;;5015737;28;20173;-78
2022/01/24 00:10:52;;;;;;;4.40;3.43;;;3.90;99.90;;;;;;5015826;28;20299;-78
2022/01/24 00:26:48;;;;;;;3.03;2.43;;;3.50;99.90;;;;;;5033794;28;20706;-78
2022/01/24 00:29:19;;;;;;;4.53;2.70;;;3.40;99.90;;;;;;5033268;28;20275;-78
2022/01/24 00:31:46;;;;;;;3.53;2.80;;;3.40;99.90;;;;;;5015440;28;20650;-78
2022/01/24 00:34:12;;;;;;;3.70;2.23;;;3.30;99.90;;;;;;5033084;28;20164;-78
2022/01/24 00:36:38;;;;;;;4.63;2.53;;;3.20;99.90;;;;;;5033031;28;20252;-78
2022/01/24 00:39:05;;;;;;;4.43;2.50;;;3.10;99.90;;;;;;5031727;28;20263;-78
2022/01/24 00:41:37;;;;;;;3.77;2.40;;;3.10;99.90;;;;;;5032885;28;20545;-78
2022/01/24 00:46:57;;;;;;;3.20;2.50;;;2.90;99.90;;;;;;5033224;28;20534;-78
2022/01/24 00:54:52;;;;;;;3.50;2.87;;;2.80;99.90;;;;;;5032922;28;20236;-78
2022/01/24 00:57:19;;;;;;;5.03;2.60;;;2.70;99.90;;;;;;5015768;28;20219;-78
2022/01/24 00:59:45;;;;;;;7.33;3.07;;;2.70;99.90;;;;;;5015005;28;20538;-78
2022/01/24 01:02:12;;;;;;;6.30;2.60;;;2.60;99.90;;;;;;5032846;28;20187;-78
2022/01/24 01:07:07;;;;;;;2.90;2.40;;;2.50;99.90;;;;;;5033006;28;20278;-78
2022/01/24 01:20:45;;;;;;;4.83;2.30;;;2.60;99.90;;;;;;5036562;28;20246;-78
2022/01/24 01:23:11;;;;;;;2.97;2.27;;;2.60;99.90;;;;;;5036736;28;20160;-78
2022/01/24 01:25:38;;;;;;;4.60;2.63;;;2.60;99.90;;;;;;5036405;28;20176;-78
2022/01/24 01:28:04;;;;;;;6.83;2.30;;;2.60;99.90;;;;;;5036582;28;20172;-77
2022/01/24 01:30:38;;;;;;;2.67;2.20;;;2.70;99.90;;;;;;5036333;28;20273;-78
2022/01/24 01:33:22;;;;;;;3.23;2.63;;;2.70;99.90;;;;;;5036368;28;20622;-78
2022/01/24 01:57:12;;;;;;;3.13;2.40;;;3.00;99.90;;;;;;5036036;28;20173;-78
2022/01/24 01:59:37;;;;;;;3.13;2.50;;;3.10;99.90;;;;;;5035486;28;20322;-78
2022/01/24 02:02:03;;;;;;;3.47;2.87;;;3.10;99.90;;;;;;5034369;28;20203;-78
2022/01/24 02:04:28;;;;;;;3.17;2.80;;;3.10;99.90;;;;;;5035879;28;20175;-78
2022/01/24 02:06:54;;;;;;;4.40;2.70;;;3.10;99.90;;;;;;5035787;28;20172;-78
2022/01/24 02:09:19;;;;;;;4.43;2.70;;;3.20;99.90;;;;;;5034122;28;20206;-77
2022/01/24 02:11:47;;;;;;;3.43;2.30;;;3.20;99.90;;;;;;5035760;28;20630;-78
2022/01/24 02:14:17;;;;;;;4.10;2.70;;;3.30;99.90;;;;;;5035459;28;20251;-78
2022/01/24 02:16:51;;;;;;;4.33;2.83;;;3.30;99.90;;;;;;5035353;28;20730;-78
2022/01/24 02:19:30;;;;;;;3.90;2.70;;;3.30;99.90;;;;;;5034030;28;20169;-78
2022/01/24 02:24:24;;;;;;;3.50;2.83;;;3.40;99.90;;;;;;5035615;28;20176;-78
2022/01/24 02:26:55;;;;;;;3.60;2.47;;;3.40;99.90;;;;;;5032840;28;20177;-78
2022/01/24 02:31:51;;;;;;;4.23;2.90;;;3.50;99.90;;;;;;5035371;28;20164;-78
2022/01/24 02:34:34;;;;;;;3.20;2.90;;;3.50;99.90;;;;;;5029164;28;20161;-78
2022/01/24 02:37:03;;;;;;;4.43;3.60;;;3.50;99.90;;;;;;4997656;28;20219;-78
2022/01/24 02:50:24;;;;;;;3.73;3.00;;;3.80;99.90;;;;;;5015029;28;20215;-78
2022/01/24 02:52:50;;;;;;;3.00;2.57;;;3.80;99.90;;;;;;4997439;28;20164;-78
2022/01/24 02:55:16;;;;;;;3.20;2.60;;;3.80;99.90;;;;;;5021447;28;20182;-78
2022/01/24 02:57:41;;;;;;;3.27;2.97;;;3.80;99.90;;;;;;5034917;28;20180;-78
2022/01/24 03:00:07;;;;;;;3.53;2.43;;;3.90;99.90;;;;;;5016569;28;20254;-78
2022/01/24 03:02:33;;;;;;;4.53;3.10;;;3.80;99.90;;;;;;5034432;28;20681;-78
2022/01/24 03:04:59;;;;;;;3.07;2.50;;;3.90;99.90;;;;;;5034445;28;20270;-78
2022/01/24 03:07:25;;;;;;;3.50;2.30;;;3.90;99.90;;;;;;5034290;28;20179;-78
2022/01/24 03:09:54;;;;;;;3.10;2.70;;;3.90;99.90;;;;;;5034324;28;20238;-78
2022/01/24 03:12:39;;;;;;;4.00;2.83;;;3.90;99.90;;;;;;5019062;28;20180;-78
2022/01/24 03:15:06;;;;;;;3.43;2.67;;;4.00;99.90;;;;;;5016663;28;20227;-79
2022/01/24 03:17:31;;;;;;;3.10;2.60;;;4.00;99.90;;;;;;5016390;28;20256;-78
2022/01/24 03:19:57;;;;;;;3.87;2.73;;;4.00;99.90;;;;;;5016389;28;20664;-77
2022/01/24 03:22:22;;;;;;;2.73;2.40;;;4.00;99.90;;;;;;5034075;28;20587;-78
2022/01/24 03:24:49;;;;;;;2.33;2.03;;;4.00;99.90;;;;;;5034177;28;20218;-78
2022/01/24 03:27:14;;;;;;;2.87;2.23;;;4.00;99.90;;;;;;5034340;28;20200;-78
2022/01/24 03:29:40;;;;;;;3.13;2.73;;;4.10;99.90;;;;;;5014751;28;20267;-78
2022/01/24 03:32:06;;;;;;;3.03;2.30;;;4.10;99.90;;;;;;5004737;28;20200;-78
2022/01/24 03:34:31;;;;;;;3.07;2.50;;;4.10;99.90;;;;;;5019758;28;20174;-78
2022/01/24 03:36:57;;;;;;;2.87;2.10;;;4.10;99.90;;;;;;5014512;28;20205;-78
2022/01/24 03:39:22;;;;;;;2.90;2.33;;;4.10;99.90;;;;;;4996327;28;20187;-78
2022/01/24 03:41:48;;;;;;;2.20;1.90;;;4.20;99.90;;;;;;5013957;28;20677;-78
2022/01/24 03:44:15;;;;;;;3.20;2.03;;;4.20;99.90;;;;;;5013881;28;20176;-78
2022/01/24 03:47:12;;;;;;;1.83;1.60;;;4.20;99.90;;;;;;4997228;28;20236;-78
2022/01/24 03:49:48;;;;;;;1.80;1.70;;;4.20;99.90;;;;;;5013804;28;20212;-78
2022/01/24 03:52:18;;;;;;;2.60;2.20;;;4.20;99.90;;;;;;5014185;28;20499;-78
2022/01/24 03:54:45;;;;;;;2.33;2.10;;;4.20;99.90;;;;;;4996235;28;20180;-78
2022/01/24 03:57:16;;;;;;;2.73;2.17;;;4.20;99.90;;;;;;4996276;28;20177;-78
2022/01/24 03:59:42;;;;;;;2.13;1.77;;;4.20;99.90;;;;;;5049600;22;20240;-79
2022/01/24 04:02:09;;;;;;;2.70;2.47;;;4.20;99.90;;;;;;4972641;28;20198;-80
2022/01/24 04:04:35;;;;;;;2.20;2.00;;;4.20;99.90;;;;;;4975251;28;20182;-79
2022/01/24 04:07:01;;;;;;;3.03;1.87;;;4.20;99.90;;;;;;4973642;28;20564;-79
2022/01/24 04:09:26;;;;;;;4.13;2.10;;;4.20;99.90;;;;;;4969122;28;20206;-82
2022/01/24 04:11:55;;;;;;;4.03;1.83;;;4.30;99.90;;;;;;4955733;28;20198;-82
2022/01/24 04:22:29;;;;;;;1.90;1.70;;;4.30;99.90;;;;;;4954864;28;20167;-82
2022/01/24 04:25:00;;;;;;;2.37;1.90;;;4.30;99.90;;;;;;4954205;28;20593;-82
2022/01/24 04:27:26;;;;;;;1.97;1.50;;;4.30;99.90;;;;;;4955771;28;20174;-79
2022/01/24 04:29:52;;;;;;;2.10;1.50;;;4.30;99.90;;;;;;4953865;28;20240;-79
2022/01/24 04:32:18;;;;;;;2.07;1.70;;;4.30;99.90;;;;;;4953978;28;20182;-78
2022/01/24 04:34:44;;;;;;;2.10;1.40;;;4.30;99.90;;;;;;4955205;28;20771;-79
2022/01/24 04:37:09;;;;;;;1.80;1.60;;;4.30;99.90;;;;;;4955643;28;20576;-79
2022/01/24 04:39:35;;;;;;;1.53;1.43;;;4.30;99.90;;;;;;4955654;28;20186;-79
2022/01/24 04:42:09;;;;;;;2.13;1.80;;;4.40;99.90;;;;;;4953732;28;20206;-82
2022/01/24 04:44:54;;;;;;;3.33;1.60;;;4.30;99.90;;;;;;4954444;28;20258;-80
2022/01/24 04:47:36;;;;;;;1.90;1.07;;;4.30;99.90;;;;;;4955991;28;20687;-79
2022/01/24 04:53:03;;;;;;;2.80;1.43;;;4.40;99.90;;;;;;4958950;29;20216;-82
2022/01/24 04:55:28;;;;;;;2.13;1.03;;;4.40;99.90;;;;;;4959443;28;20156;-82
2022/01/24 04:57:54;;;;;;;1.23;1.10;;;4.40;99.90;;;;;;4958307;28;20703;-79
2022/01/24 05:00:19;;;;;;;1.90;1.23;;;4.40;99.90;;;;;;4958195;28;20676;-79
2022/01/24 05:02:45;;;;;;;1.47;1.20;;;4.30;99.90;;;;;;4957446;28;20716;-79
2022/01/24 05:05:16;;;;;;;1.57;1.33;;;4.30;99.90;;;;;;4958179;28;20186;-79
2022/01/24 05:07:42;;;;;;;3.37;1.20;;;4.30;99.90;;;;;;4958342;28;20182;-79
2022/01/24 05:10:23;;;;;;;1.47;1.10;;;4.30;99.90;;;;;;4957103;28;20214;-79
2022/01/24 05:23:36;;;;;;;2.03;1.10;;;4.30;99.90;;;;;;4958328;29;20177;-81
2022/01/24 05:26:05;;;;;;;1.23;1.13;;;4.30;99.90;;;;;;4958888;28;20288;-82
2022/01/24 05:28:33;;;;;;;1.20;0.90;;;4.30;99.90;;;;;;4959695;28;20191;-78
2022/01/24 05:30:59;;;;;;;1.30;1.00;;;4.30;99.90;;;;;;4958080;28;20305;-79
2022/01/24 05:33:26;;;;;;;1.00;0.87;;;4.30;99.90;;;;;;4960945;28;20254;-79
2022/01/24 05:35:52;;;;;;;1.00;0.90;;;4.30;99.90;;;;;;4973400;28;20213;-81
2022/01/24 05:38:17;;;;;;;1.50;1.10;;;4.30;99.90;;;;;;4977543;28;20183;-80
2022/01/24 05:40:45;;;;;;;3.17;1.20;;;4.50;99.90;;;;;;4962508;28;20572;-81
2022/01/24 05:43:11;;;;;;;2.50;1.50;;;4.30;99.90;;;;;;4954851;28;20202;-81
2022/01/24 05:45:36;;;;;;;1.93;1.13;;;4.30;99.90;;;;;;4956675;28;20181;-81
2022/01/24 05:48:03;;;;;;;1.07;1.00;;;4.30;99.90;;;;;;4957067;28;20274;-81
2022/01/24 05:50:28;;;;;;;2.23;1.63;;;4.30;99.90;;;;;;4955240;28;20214;-81
2022/01/24 05:52:54;;;;;;;1.97;1.43;;;4.30;99.90;;;;;;4956430;28;20179;-81
2022/01/24 05:55:20;;;;;;;2.27;1.20;;;4.30;99.90;;;;;;4956442;28;20180;-80
2022/01/24 05:57:45;;;;;;;1.50;1.37;;;4.30;99.90;;;;;;4957172;28;20199;-76
2022/01/24 06:00:13;;;;;;;2.03;1.50;;;4.30;99.90;;;;;;4955664;28;20217;-78
2022/01/24 06:02:40;;;;;;;1.93;1.60;;;4.30;99.90;;;;;;4955344;28;20662;-77
2022/01/24 06:05:06;;;;;;;1.60;1.40;;;4.30;99.90;;;;;;4955587;28;20194;-78
2022/01/24 06:07:32;;;;;;;2.80;2.13;;;4.30;99.90;;;;;;4954749;28;20418;-77
2022/01/24 06:09:57;;;;;;;2.90;1.83;;;4.40;99.90;;;;;;4955965;28;20462;-77
2022/01/24 06:12:24;;;;;;;3.33;1.90;;;4.30;99.90;;;;;;4955612;28;20187;-78
2022/01/24 06:14:49;;;;;;;2.47;1.60;;;4.30;99.90;;;;;;4953987;28;20186;-76
2022/01/24 06:17:17;;;;;;;4.13;1.67;;;4.40;99.90;;;;;;4952582;28;20179;-76
2022/01/24 06:19:43;;;;;;;5.60;1.90;;;4.40;99.90;;;;;;4952547;28;20187;-75
2022/01/24 06:22:08;;;;;;;1.90;1.60;;;4.40;99.90;;;;;;4954060;28;20183;-76
2022/01/24 06:24:34;;;;;;;2.20;2.00;;;4.40;99.90;;;;;;4954114;28;20175;-76
2022/01/24 06:26:59;;;;;;;2.67;2.00;;;4.40;99.90;;;;;;4953196;28;20274;-76
2022/01/24 06:29:25;;;;;;;1.97;1.77;;;4.40;99.90;;;;;;4954007;28;20242;-75
2022/01/24 06:31:50;;;;;;;2.90;2.20;;;4.40;99.90;;;;;;4952357;28;20281;-75
2022/01/24 06:34:16;;;;;;;2.37;2.00;;;4.40;99.90;;;;;;4953691;28;20705;-75
2022/01/24 06:36:42;;;;;;;2.63;2.20;;;4.40;99.90;;;;;;4952602;28;20175;-79
2022/01/24 06:39:10;;;;;;;2.40;2.20;;;4.50;99.90;;;;;;4952725;28;20531;-75
2022/01/24 06:41:36;;;;;;;2.07;1.87;;;4.40;99.90;;;;;;4953514;28;20183;-76
2022/01/24 06:44:02;;;;;;;4.23;2.30;;;4.50;99.90;;;;;;4953585;28;20217;-76
2022/01/24 06:46:28;;;;;;;2.20;1.90;;;4.40;99.90;;;;;;4953455;28;20168;-76
2022/01/24 06:48:55;;;;;;;2.73;1.93;;;4.40;99.90;;;;;;4953824;28;20171;-76
2022/01/24 06:51:21;;;;;;;3.63;2.30;;;4.40;99.90;;;;;;4951979;28;20346;-75
2022/01/24 06:53:48;;;;;;;3.07;2.10;;;4.50;99.90;;;;;;4953912;28;20316;-75
2022/01/24 06:56:14;;;;;;;4.43;2.33;;;4.50;99.90;;;;;;4953261;28;20178;-76
2022/01/24 06:58:41;;;;;;;2.27;2.07;;;4.50;99.90;;;;;;4953247;28;20175;-76
2022/01/24 07:01:07;;;;;;;2.10;1.87;;;4.50;99.90;;;;;;4952973;28;20219;-76
2022/01/24 07:03:32;;;;;;;3.13;1.97;;;4.50;99.90;;;;;;4953273;28;20190;-76
2022/01/24 07:05:58;;;;;;;3.17;1.90;;;4.50;99.90;;;;;;4951915;28;20179;-75
2022/01/24 07:08:24;;;;;;;3.50;2.33;;;4.50;99.90;;;;;;4953153;28;20179;-76
2022/01/24 07:10:50;;;;;;;3.13;1.90;;;4.50;99.90;;;;;;4952942;28;20211;-75
2022/01/24 07:13:16;;;;;;;2.20;2.00;;;4.50;99.90;;;;;;4951423;28;20317;-78
2022/01/24 07:15:49;;;;;;;2.17;1.97;;;4.50;99.90;;;;;;4953182;28;20641;-76
2022/01/24 07:19:03;;;;;;;2.50;1.97;;;4.50;99.90;;;;;;4953061;28;20247;-75
2022/01/24 07:21:04;;;;;;;3.70;2.40;;;4.50;99.90;;;;;;4966088;28;20215;-75
2022/01/24 07:23:29;;;;;;;3.73;2.23;;;4.50;99.90;;;;;;4952908;28;20218;-75
2022/01/24 07:25:55;;;;;;;6.03;2.23;;;4.50;99.90;;;;;;4951653;28;20175;-75
2022/01/24 07:28:21;;;;;;;4.57;2.00;;;4.50;99.90;;;;;;4952979;28;20175;-75
2022/01/24 07:30:47;;;;;;;4.20;2.27;;;4.50;99.90;;;;;;4952719;28;20619;-75
2022/01/24 07:33:15;;;;;;;2.30;2.10;;;4.50;99.90;;;;;;4951559;28;20186;-75
2022/01/24 07:35:43;;;;;;;1.90;1.80;;;4.50;99.90;;;;;;4951546;28;20190;-75
2022/01/24 07:38:08;;;;;;;2.03;1.70;;;4.50;99.90;;;;;;4951502;28;20178;-75
2022/01/24 07:40:38;;;;;;;2.63;1.27;;;4.60;99.90;;;;;;4951311;28;20207;-75
2022/01/24 07:43:12;;;;;;;2.87;1.50;;;4.60;99.90;;;;;;4951409;28;20187;-73
2022/01/24 07:45:42;;;;;;;1.93;1.70;;;4.50;99.90;;;;;;4952897;28;20170;-75
2022/01/24 07:48:08;;;;;;;2.30;1.63;;;4.60;99.90;;;;;;4952917;28;20554;-74
2022/01/24 07:50:36;;;;;;;2.13;1.93;;;4.60;99.90;;;;;;4952667;28;20214;-75
2022/01/24 07:53:03;;;;;;;1.80;1.60;;;4.50;99.90;;;;;;4951261;28;20199;-75
2022/01/24 07:55:30;;;;;;;2.97;2.67;;;4.50;99.90;;;;;;4952504;28;20179;-75
2022/01/24 07:57:55;;;;;;;2.70;2.00;;;4.50;99.90;;;;;;4952505;28;20179;-75
2022/01/24 08:00:21;;;;;;;4.13;1.60;;;4.60;99.90;;;;;;4951046;28;20692;-74
2022/01/24 08:02:47;;;;;;;2.27;1.77;;;4.60;99.90;;;;;;4952423;28;20215;-76
2022/01/24 08:05:12;;;;;;;2.37;1.60;;;4.60;99.90;;;;;;4952589;28;20182;-75
2022/01/24 08:07:38;;;;;;;1.83;1.70;;;4.60;99.90;;;;;;4952834;28;20685;-77
2022/01/24 08:10:06;;;;;;;4.03;1.50;;;4.60;99.90;;;;;;4952636;28;20268;-77
2022/01/24 08:12:32;;;;;;;3.23;1.40;;;4.60;99.90;;;;;;4951567;28;20210;-76
2022/01/24 08:15:00;;;;;;;2.03;1.63;;;4.60;99.90;;;;;;4952756;28;20229;-77
2022/01/24 08:17:26;;;;;;;2.27;2.03;;;4.70;99.90;;;;;;4952806;28;20183;-77
2022/01/24 08:19:52;;;;;;;1.50;1.30;;;4.70;99.90;;;;;;4967738;28;20209;-77
2022/01/24 08:22:18;;;;;;;4.90;1.50;;;4.70;99.90;;;;;;4969112;28;20636;-78
2022/01/24 08:24:44;;;;;;;2.30;1.80;;;4.70;99.90;;;;;;4970601;28;20181;-77
2022/01/24 08:27:10;;;;;;;2.50;2.30;;;4.70;99.90;;;;;;4970500;28;20193;-77
2022/01/24 08:29:36;;;;;;;3.40;2.63;;;4.70;99.90;;;;;;4970365;28;20214;-76
2022/01/24 08:32:02;;;;;;;3.30;2.40;;;4.70;99.90;;;;;;4970261;28;20198;-78
2022/01/24 08:34:27;;;;;;;4.23;2.57;;;4.70;99.90;;;;;;4971819;28;20208;-78
2022/01/24 08:36:53;;;;;;;3.47;2.30;;;4.70;99.90;;;;;;4972510;28;20266;-76
2022/01/24 08:39:18;;;;;;;4.67;2.53;;;4.70;99.90;;;;;;4971064;28;20177;-76
2022/01/24 08:41:59;;;;;;;3.27;1.90;;;4.70;99.90;;;;;;4969901;28;20248;-77
2022/01/24 08:47:09;;;;;;;2.47;1.70;;;4.80;99.90;;;;;;4971960;28;20224;-76
2022/01/24 08:49:35;;;;;;;2.30;2.10;;;4.80;99.90;;;;;;4971482;28;20682;-75
2022/01/24 08:52:01;;;;;;;4.63;2.70;;;4.90;99.90;;;;;;4969823;28;20285;-77
2022/01/24 08:54:27;;;;;;;3.07;2.70;;;4.90;99.90;;;;;;4971074;28;20641;-73
2022/01/24 08:56:53;;;;;;;4.03;2.70;;;4.80;99.90;;;;;;4971221;28;20533;-77
2022/01/24 08:59:21;;;;;;;2.93;2.63;;;4.90;99.90;;;;;;4971246;28;20621;-76
2022/01/24 09:01:47;;;;;;;4.00;2.77;;;4.90;99.90;;;;;;4970995;28;20210;-75
2022/01/24 09:04:12;;;;;;;2.70;2.50;;;4.90;99.90;;;;;;4969616;28;20262;-76
2022/01/24 09:06:38;;;;;;;6.60;5.30;;;4.90;99.90;;;;;;4971096;28;20178;-78
2022/01/24 09:09:05;;;;;;;7.80;4.93;;;5.00;99.90;;;;;;4969845;28;20225;-77
2022/01/24 09:11:33;;;;;;;4.83;2.37;;;5.00;99.90;;;;;;4969718;28;20327;-77
2022/01/24 09:13:58;;;;;;;4.67;2.93;;;5.00;99.90;;;;;;4971472;28;20178;-77
2022/01/24 09:16:24;;;;;;;3.80;3.50;;;5.10;99.90;;;;;;4970204;28;20182;-77
2022/01/24 09:18:50;;;;;;;7.30;6.60;;;5.10;99.90;;;;;;4971594;28;20730;-77
2022/01/24 09:21:16;;;;;;;6.63;3.83;;;5.10;99.90;;;;;;4971294;28;20289;-78
2022/01/24 09:23:42;;;;;;;3.67;3.20;;;5.20;99.90;;;;;;4970972;28;20320;-78
2022/01/24 09:26:07;;;;;;;3.40;3.10;;;5.20;99.90;;;;;;4971116;28;20655;-76
2022/01/24 09:28:33;;;;;;;3.27;2.97;;;5.20;99.90;;;;;;4971200;28;20647;-77
2022/01/24 09:30:59;;;;;;;5.07;2.43;;;5.30;99.90;;;;;;4971240;28;20215;-77
2022/01/24 09:33:25;;;;;;;12.17;10.47;;;5.20;99.90;;;;;;4969832;28;20174;-77
2022/01/24 09:35:52;;;;;;;9.27;7.10;;;5.30;99.90;;;;;;4972963;28;20548;-77
2022/01/24 09:38:20;;;;;;;5.07;3.37;;;5.30;99.90;;;;;;4974432;28;20659;-78
2022/01/24 09:40:46;;;;;;;7.10;4.77;;;5.30;99.90;;;;;;4974874;28;20222;-77
2022/01/24 09:43:11;;;;;;;2.80;2.47;;;5.30;99.90;;;;;;4974439;28;20555;-77
2022/01/24 09:45:37;;;;;;;3.47;2.60;;;5.40;99.90;;;;;;4974437;28;20186;-77
2022/01/24 09:48:03;;;;;;;3.80;2.70;;;5.40;99.90;;;;;;4974714;28;20178;-79
2022/01/24 09:50:29;;;;;;;3.47;2.60;;;5.40;99.90;;;;;;4974515;28;20288;-78
2022/01/24 09:52:55;;;;;;;3.97;2.73;;;5.40;99.90;;;;;;4974638;28;20668;-78
2022/01/24 09:55:22;;;;;;;4.80;2.67;;;5.50;99.90;;;;;;4971182;28;20241;-77
2022/01/24 09:57:49;;;;;;;5.60;2.77;;;5.50;99.90;;;;;;4974041;28;20175;-78
2022/01/24 10:00:20;;;;;;;4.93;2.50;;;5.50;99.90;;;;;;4974339;28;20225;-78
2022/01/24 10:02:49;;;;;;;4.53;2.27;;;5.50;99.90;;;;;;5014833;23;20255;-91
2022/01/24 10:05:22;;;;;;;4.30;2.50;;;5.60;99.90;;;;;;4974219;28;20206;-92
2022/01/24 10:07:50;;;;;;;2.60;2.40;;;5.60;99.90;;;;;;4963525;29;20229;-92
2022/01/24 10:10:29;;;;;;;2.73;2.43;;;5.70;99.90;;;;;;4955481;28;20199;-92
2022/01/24 10:16:25;;;;;;;4.53;3.30;;;5.70;99.90;;;;;;4956031;28;20205;-92
2022/01/24 10:19:15;;;;;;;2.60;2.40;;;5.70;99.90;;;;;;4954712;28;20179;-92
2022/01/24 10:21:48;;;;;;;5.13;3.10;;;5.70;99.90;;;;;;4956672;29;20160;-93
2022/01/24 10:24:26;;;;;;;3.47;2.30;;;5.70;99.90;;;;;;4955445;28;20312;-93
2022/01/24 10:27:11;;;;;;;3.27;2.40;;;5.70;99.90;;;;;;4958069;28;20208;-93
2022/01/24 10:29:45;;;;;;;5.73;2.90;;;5.70;99.90;;;;;;4958830;29;20222;-93
2022/01/24 10:32:32;;;;;;;2.90;2.63;;;5.70;99.90;;;;;;4955954;28;20175;-93
2022/01/24 10:35:22;;;;;;;3.53;2.60;;;5.80;99.90;;;;;;4955950;28;20623;-92
2022/01/24 10:37:51;;;;;;;3.70;2.57;;;5.80;99.90;;;;;;4954096;29;20158;-92
2022/01/24 10:40:44;;;;;;;3.30;2.77;;;5.80;99.90;;;;;;4954161;28;20185;-92
2022/01/24 10:43:25;;;;;;;3.33;2.37;;;5.80;99.90;;;;;;4954278;29;20168;-92
2022/01/24 10:45:54;;;;;;;2.90;2.30;;;5.90;99.90;;;;;;4954354;28;20218;-92
2022/01/24 10:48:30;;;;;;;2.90;2.60;;;5.90;99.90;;;;;;4954087;28;20266;-92
2022/01/24 10:51:17;;;;;;;3.40;3.00;;;5.90;99.90;;;;;;4953579;29;20198;-93
2022/01/24 10:53:51;;;;;;;4.10;2.87;;;6.00;99.90;;;;;;4954011;28;20232;-93
2022/01/24 10:56:36;;;;;;;3.20;2.80;;;6.00;99.90;;;;;;4953730;28;20167;-93
2022/01/24 10:59:17;;;;;;;4.57;3.00;;;6.00;99.90;;;;;;4965381;29;20155;-93
2022/01/24 11:01:46;;;;;;;3.47;2.77;;;6.00;99.90;;;;;;4976708;28;20222;-93
2022/01/24 11:04:13;;;;;;;3.00;2.70;;;6.10;99.90;;;;;;4959745;28;20618;-94
2022/01/24 11:06:45;;;;;;;3.37;2.93;;;6.00;99.90;;;;;;4958510;28;20187;-94
2022/01/24 11:09:30;;;;;;;3.20;2.77;;;6.10;99.90;;;;;;4969495;22;20233;-79
2022/01/24 11:12:06;;;;;;;3.83;3.00;;;6.20;99.90;;;;;;4953741;28;20581;-78
2022/01/24 11:14:32;;;;;;;3.50;3.20;;;6.20;99.90;;;;;;4955542;28;20155;-79
2022/01/24 11:16:59;;;;;;;3.70;3.33;;;6.30;99.90;;;;;;4953755;28;20692;-79
2022/01/24 11:19:30;;;;;;;3.60;3.20;;;6.40;99.90;;;;;;4955076;29;20210;-81
2022/01/24 11:21:59;;;;;;;4.90;3.30;;;6.50;99.90;;;;;;4955583;28;20199;-81
2022/01/24 11:24:38;;;;;;;4.23;3.03;;;6.40;99.90;;;;;;4957252;28;20677;-81
2022/01/24 11:27:05;;;;;;;4.87;3.23;;;6.40;99.90;;;;;;4955829;29;20184;-81
2022/01/24 11:29:32;;;;;;;3.80;3.03;;;6.40;99.90;;;;;;4957936;28;20175;-81
2022/01/24 11:32:03;;;;;;;4.00;3.40;;;6.40;99.90;;;;;;4957462;28;20537;-81
2022/01/24 11:34:35;;;;;;;4.73;3.30;;;6.50;99.90;;;;;;4957526;28;20206;-81
2022/01/24 11:37:01;;;;;;;3.90;3.20;;;6.50;99.90;;;;;;4957524;28;20191;-81
2022/01/24 11:39:26;;;;;;;3.80;3.07;;;6.50;99.90;;;;;;4957725;28;20529;-81
2022/01/24 11:41:53;;;;;;;3.33;3.03;;;6.50;99.90;;;;;;4955540;28;20230;-81
2022/01/24 11:44:21;;;;;;;4.77;3.57;;;6.50;99.90;;;;;;4956919;28;20178;-81
2022/01/24 11:46:56;;;;;;;4.27;3.30;;;6.50;99.90;;;;;;4957170;28;20199;-80
2022/01/24 11:49:31;;;;;;;3.77;3.20;;;6.40;99.90;;;;;;4955259;28;20179;-80
2022/01/24 11:52:18;;;;;;;4.63;3.20;;;6.40;99.90;;;;;;4957115;28;20190;-81
2022/01/24 11:54:45;;;;;;;4.43;3.50;;;6.40;99.90;;;;;;4955927;29;20171;-81
2022/01/24 11:57:13;;;;;;;5.37;3.23;;;6.40;99.90;;;;;;4956633;28;20559;-81
2022/01/24 11:59:39;;;;;;;6.63;3.33;;;6.30;99.90;;;;;;4956299;28;20223;-81
2022/01/24 12:02:10;;;;;;;3.33;3.03;;;6.30;99.90;;;;;;4955154;28;20574;-80
2022/01/24 12:04:55;;;;;;;3.50;3.20;;;6.40;99.90;;;;;;4955000;28;20268;-80
2022/01/24 12:07:28;;;;;;;3.30;2.97;;;6.30;99.90;;;;;;4954303;29;20200;-80
2022/01/24 12:09:56;;;;;;;4.60;3.10;;;6.40;99.90;;;;;;4954462;28;20222;-80
2022/01/24 12:12:48;;;;;;;3.50;3.20;;;6.40;99.90;;;;;;4955421;28;20665;-81
2022/01/24 12:15:36;;;;;;;4.20;3.20;;;6.50;99.90;;;;;;4953856;29;20183;-79
2022/01/24 12:18:02;;;;;;;4.43;2.77;;;6.60;99.90;;;;;;4955184;28;20171;-80
2022/01/24 12:20:31;;;;;;;5.27;3.63;;;6.60;99.90;;;;;;4955486;28;20232;-79
2022/01/24 12:23:16;;;;;;;4.80;3.97;;;6.70;99.90;;;;;;4956089;28;20573;-80
2022/01/24 12:25:57;;;;;;;5.73;3.30;;;6.70;99.90;;;;;;4953815;28;20178;-80
2022/01/24 12:28:27;;;;;;;3.70;3.00;;;6.80;99.90;;;;;;4955715;29;20155;-80
2022/01/24 12:31:05;;;;;;;6.60;3.20;;;6.70;99.90;;;;;;4954678;29;20203;-80
2022/01/24 12:33:39;;;;;;;3.20;2.80;;;6.70;99.90;;;;;;4954535;28;20544;-79
2022/01/24 12:36:14;;;;;;;5.97;3.43;;;6.70;99.90;;;;;;4953857;29;20181;-79
2022/01/24 12:38:52;;;;;;;4.37;3.20;;;6.70;99.90;;;;;;4955912;28;20182;-79
2022/01/24 12:41:24;;;;;;;3.87;3.10;;;6.70;99.90;;;;;;4955330;28;20723;-80
2022/01/24 12:44:11;;;;;;;5.00;3.27;;;6.70;99.90;;;;;;4954270;29;20176;-80
2022/01/24 12:46:37;;;;;;;4.70;2.93;;;6.80;99.90;;;;;;4955282;28;20155;-80
2022/01/24 12:49:06;;;;;;;5.90;3.23;;;7.10;99.90;;;;;;4955599;29;20248;-80
2022/01/24 12:51:35;;;;;;;3.73;3.10;;;6.80;99.90;;;;;;4953883;28;20207;-80
2022/01/24 12:54:02;;;;;;;4.77;3.10;;;6.80;99.90;;;;;;4953812;28;20175;-80
2022/01/24 12:56:31;;;;;;;6.53;3.63;;;6.80;99.90;;;;;;4955428;28;20194;-80
2022/01/24 12:58:57;;;;;;;4.00;3.20;;;6.80;99.90;;;;;;4954005;28;20175;-80
2022/01/24 13:01:29;;;;;;;2.97;2.60;;;6.80;99.90;;;;;;4955252;28;20175;-80
2022/01/24 13:04:07;;;;;;;4.53;2.50;;;6.80;99.90;;;;;;4955932;28;20223;-80
2022/01/24 13:06:35;;;;;;;4.00;2.70;;;6.80;99.90;;;;;;4955419;28;20151;-79
2022/01/24 13:09:14;;;;;;;3.30;2.50;;;6.70;99.90;;;;;;4955251;28;20190;-80
2022/01/24 13:11:54;;;;;;;4.17;2.53;;;6.80;99.90;;;;;;4957757;28;20211;-79
2022/01/24 13:14:35;;;;;;;3.47;3.00;;;6.70;99.90;;;;;;4956381;29;20175;-79
2022/01/24 13:22:59;;;;;;;2.77;2.47;;;6.70;99.90;;;;;;4957362;28;20218;-79
2022/01/24 13:25:26;;;;;;;3.93;2.70;;;6.70;99.90;;;;;;4957880;28;20155;-79
2022/01/24 13:28:00;;;;;;;3.93;2.90;;;6.70;99.90;;;;;;4957893;29;20178;-79
2022/01/24 13:30:38;;;;;;;8.73;2.97;;;6.70;99.90;;;;;;4957170;28;20655;-79
2022/01/24 13:33:09;;;;;;;3.53;3.07;;;6.70;99.90;;;;;;4956503;28;20210;-80
2022/01/24 13:35:46;;;;;;;4.33;2.80;;;6.70;99.90;;;;;;4957606;28;20174;-79
2022/01/24 13:38:30;;;;;;;4.83;2.97;;;6.60;99.90;;;;;;4957379;28;20190;-80
2022/01/24 13:41:04;;;;;;;3.90;2.40;;;6.60;99.90;;;;;;4959268;28;20254;-80
2022/01/24 13:43:30;;;;;;;4.60;2.73;;;6.60;99.90;;;;;;4957331;28;20206;-81
2022/01/24 13:45:57;;;;;;;2.57;2.27;;;6.60;99.90;;;;;;4958119;28;20254;-81
2022/01/24 13:48:24;;;;;;;5.53;3.47;;;6.60;99.90;;;;;;4957397;29;20213;-80
2022/01/24 13:50:56;;;;;;;4.63;3.17;;;6.60;99.90;;;;;;4958785;28;20225;-80
2022/01/24 13:53:51;;;;;;;5.07;3.17;;;6.50;99.90;;;;;;4956815;28;20618;-81
2022/01/24 13:56:24;;;;;;;7.20;3.50;;;6.60;99.90;;;;;;5010499;28;20235;-81
2022/01/24 13:59:00;;;;;;;5.17;3.13;;;6.50;99.90;;;;;;4956823;29;20697;-80
2022/01/24 14:01:26;;;;;;;3.40;2.90;;;6.50;99.90;;;;;;4957973;28;20178;-80
2022/01/24 14:03:56;;;;;;;3.57;2.97;;;6.50;99.90;;;;;;4956681;28;20190;-81
2022/01/24 14:06:22;;;;;;;3.33;3.00;;;6.40;99.90;;;;;;4958542;28;20198;-80
2022/01/24 14:09:08;;;;;;;4.33;2.97;;;6.40;99.90;;;;;;4957199;28;20187;-81
2022/01/24 14:11:41;;;;;;;5.43;3.27;;;6.40;99.90;;;;;;4959124;28;20211;-81
2022/01/24 14:14:11;;;;;;;2.90;2.60;;;6.30;99.90;;;;;;4958642;28;20175;-81
2022/01/24 14:16:47;;;;;;;5.90;3.00;;;6.40;99.90;;;;;;4958984;29;20189;-81
2022/01/24 14:19:13;;;;;;;4.53;2.67;;;6.30;99.90;;;;;;4959138;28;20151;-81
2022/01/24 14:21:38;;;;;;;7.60;2.70;;;6.40;99.90;;;;;;4957798;28;20600;-80
2022/01/24 14:24:07;;;;;;;3.73;2.70;;;6.40;99.90;;;;;;4959353;29;20590;-81
2022/01/24 14:26:33;;;;;;;4.93;2.70;;;6.30;99.90;;;;;;4959340;28;20664;-80
2022/01/24 14:29:14;;;;;;;4.37;3.00;;;6.30;99.90;;;;;;4962101;28;20186;-81
2022/01/24 14:31:43;;;;;;;8.83;2.77;;;6.40;99.90;;;;;;4960541;28;20206;-81
2022/01/24 14:34:09;;;;;;;3.53;2.60;;;6.30;99.90;;;;;;4970010;28;20231;-81
2022/01/24 14:36:36;;;;;;;3.23;2.70;;;6.30;99.90;;;;;;4972217;28;20183;-81
2022/01/24 14:39:07;;;;;;;4.73;2.27;;;6.30;99.90;;;;;;4970314;28;20195;-81
2022/01/24 14:41:46;;;;;;;4.90;2.40;;;6.20;99.90;;;;;;4971172;28;20199;-81
2022/01/24 14:46:58;;;;;;;5.87;3.00;;;6.20;99.90;;;;;;4957056;29;20238;-81
2022/01/24 14:49:27;;;;;;;5.13;2.83;;;6.20;99.90;;;;;;4956283;28;20175;-81
2022/01/24 14:51:59;;;;;;;4.80;2.90;;;6.20;99.90;;;;;;4955973;28;20708;-81
2022/01/24 14:54:27;;;;;;;3.83;2.97;;;6.10;99.90;;;;;;4956229;28;20186;-81
2022/01/24 14:56:55;;;;;;;3.93;2.70;;;6.00;99.90;;;;;;4956254;28;20171;-81
2022/01/24 14:59:22;;;;;;;4.90;2.83;;;6.00;99.90;;;;;;4954696;28;20171;-81